sensor_id;sensor_type;location;lat;lon;timestamp;temperature;humidity
5962;DHT22;3007;50.770;0.250;2022-11-11T00:00:20;14.80;99.90
5962;DHT22;3007;50.770;0.250;2022-11-11T00:02:47;14.80;99.90
5962;DHT22;3007;50.770;0.250;2022-11-11T00:05:14;14.80;99.90
5962;DHT22;3007;50.770;0.250;2022-11-11T00:07:42;14.80;99.90
5962;DHT22;3007;50.770;0.250;2022-11-11T00:10:09;14.80;99.90
5962;DHT22;3007;50.770;0.250;2022-11-11T00:12:36;14.80;99.90
5962;DHT22;3007;50.770;0.250;2022-11-11T00:15:03;14.80;99.90
5962;DHT22;3007;50.770;0.250;2022-11-11T00:17:32;14.80;99.90
5962;DHT22;3007;50.770;0.250;2022-11-11T00:20:17;14.80;99.90
5962;DHT22;3007;50.770;0.250;2022-11-11T00:23:01;14.80;99.90
5962;DHT22;3007;50.770;0.250;2022-11-11T00:25:45;14.80;99.90
5962;DHT22;3007;50.770;0.250;2022-11-11T00:28:12;14.80;99.90
5962;DHT22;3007;50.770;0.250;2022-11-11T00:30:42;14.80;99.90
5962;DHT22;3007;50.770;0.250;2022-11-11T00:33:10;14.80;99.90
5962;DHT22;3007;50.770;0.250;2022-11-11T00:35:37;14.80;99.90
5962;DHT22;3007;50.770;0.250;2022-11-11T00:38:18;14.80;99.90
5962;DHT22;3007;50.770;0.250;2022-11-11T00:40:59;14.80;99.90
5962;DHT22;3007;50.770;0.250;2022-11-11T00:43:26;14.80;99.90
5962;DHT22;3007;50.770;0.250;2022-11-11T00:45:53;14.80;99.90
5962;DHT22;3007;50.770;0.250;2022-11-11T00:48:41;14.90;99.90
5962;DHT22;3007;50.770;0.250;2022-11-11T00:51:26;14.90;99.90
5962;DHT22;3007;50.770;0.250;2022-11-11T00:53:53;14.90;99.90
5962;DHT22;3007;50.770;0.250;2022-11-11T00:56:20;14.90;99.90
5962;DHT22;3007;50.770;0.250;2022-11-11T00:58:47;14.90;99.90
5962;DHT22;3007;50.770;0.250;2022-11-11T01:01:15;14.90;99.90
5962;DHT22;3007;50.770;0.250;2022-11-11T01:03:43;14.90;99.90
5962;DHT22;3007;50.770;0.250;2022-11-11T01:06:11;14.90;99.90
5962;DHT22;3007;50.770;0.250;2022-11-11T01:08:38;14.90;99.90
5962;DHT22;3007;50.770;0.250;2022-11-11T01:11:11;14.90;99.90
5962;DHT22;3007;50.770;0.250;2022-11-11T01:13:39;14.90;99.90
5962;DHT22;3007;50.770;0.250;2022-11-11T01:16:09;14.80;99.90
5962;DHT22;3007;50.770;0.250;2022-11-11T01:18:36;14.90;99.90
5962;DHT22;3007;50.770;0.250;2022-11-11T01:21:06;14.80;99.90
5962;DHT22;3007;50.770;0.250;2022-11-11T01:23:35;14.80;99.90
5962;DHT22;3007;50.770;0.250;2022-11-11T01:26:04;14.80;99.90
5962;DHT22;3007;50.770;0.250;2022-11-11T01:28:32;14.80;99.90
5962;DHT22;3007;50.770;0.250;2022-11-11T01:31:04;14.80;99.90
5962;DHT22;3007;50.770;0.250;2022-11-11T01:33:31;14.80;99.90
5962;DHT22;3007;50.770;0.250;2022-11-11T01:36:05;14.80;99.90
5962;DHT22;3007;50.770;0.250;2022-11-11T01:38:32;14.80;99.90
5962;DHT22;3007;50.770;0.250;2022-11-11T01:40:59;14.70;99.90
5962;DHT22;3007;50.770;0.250;2022-11-11T01:43:26;14.70;99.90
5962;DHT22;3007;50.770;0.250;2022-11-11T01:45:55;14.70;99.90
5962;DHT22;3007;50.770;0.250;2022-11-11T01:48:32;14.70;99.90
5962;DHT22;3007;50.770;0.250;2022-11-11T01:51:23;14.70;99.90
5962;DHT22;3007;50.770;0.250;2022-11-11T01:53:56;14.70;99.90
5962;DHT22;3007;50.770;0.250;2022-11-11T01:56:24;14.60;99.90
5962;DHT22;3007;50.770;0.250;2022-11-11T01:58:53;14.60;99.90
5962;DHT22;3007;50.770;0.250;2022-11-11T02:01:21;14.60;99.90
5962;DHT22;3007;50.770;0.250;2022-11-11T02:03:50;14.60;99.90
5962;DHT22;3007;50.770;0.250;2022-11-11T02:06:35;14.50;99.90
5962;DHT22;3007;50.770;0.250;2022-11-11T02:09:03;14.50;99.90
5962;DHT22;3007;50.770;0.250;2022-11-11T02:11:32;14.50;99.90
5962;DHT22;3007;50.770;0.250;2022-11-11T02:14:18;14.50;99.90
5962;DHT22;3007;50.770;0.250;2022-11-11T02:17:07;14.50;99.90
5962;DHT22;3007;50.770;0.250;2022-11-11T02:19:41;14.50;99.90
5962;DHT22;3007;50.770;0.250;2022-11-11T02:22:15;14.50;99.90
5962;DHT22;3007;50.770;0.250;2022-11-11T02:24:43;14.50;99.90
5962;DHT22;3007;50.770;0.250;2022-11-11T02:27:15;14.50;99.90
5962;DHT22;3007;50.770;0.250;2022-11-11T02:29:43;14.50;99.90
5962;DHT22;3007;50.770;0.250;2022-11-11T02:32:10;14.50;99.90
5962;DHT22;3007;50.770;0.250;2022-11-11T02:34:37;14.50;99.90
5962;DHT22;3007;50.770;0.250;2022-11-11T02:37:07;14.50;99.90
5962;DHT22;3007;50.770;0.250;2022-11-11T02:39:35;14.50;99.90
5962;DHT22;3007;50.770;0.250;2022-11-11T02:42:08;14.50;99.90
5962;DHT22;3007;50.770;0.250;2022-11-11T02:44:35;14.50;99.90
5962;DHT22;3007;50.770;0.250;2022-11-11T02:47:02;14.50;99.90
5962;DHT22;3007;50.770;0.250;2022-11-11T02:49:29;14.50;99.90
5962;DHT22;3007;50.770;0.250;2022-11-11T02:51:56;14.50;99.90
5962;DHT22;3007;50.770;0.250;2022-11-11T02:54:23;14.50;99.90
5962;DHT22;3007;50.770;0.250;2022-11-11T02:56:50;14.50;99.90
5962;DHT22;3007;50.770;0.250;2022-11-11T02:59:38;14.50;99.90
5962;DHT22;3007;50.770;0.250;2022-11-11T03:02:06;14.50;99.90
5962;DHT22;3007;50.770;0.250;2022-11-11T03:04:33;14.40;99.90
5962;DHT22;3007;50.770;0.250;2022-11-11T03:07:02;14.40;99.90
5962;DHT22;3007;50.770;0.250;2022-11-11T03:09:29;14.40;99.90
5962;DHT22;3007;50.770;0.250;2022-11-11T03:11:56;14.40;99.90
5962;DHT22;3007;50.770;0.250;2022-11-11T03:14:23;14.30;99.90
5962;DHT22;3007;50.770;0.250;2022-11-11T03:16:52;14.30;99.90
5962;DHT22;3007;50.770;0.250;2022-11-11T03:19:36;14.30;99.90
5962;DHT22;3007;50.770;0.250;2022-11-11T03:22:03;14.30;99.90
5962;DHT22;3007;50.770;0.250;2022-11-11T03:24:29;14.40;99.90
5962;DHT22;3007;50.770;0.250;2022-11-11T03:27:11;14.40;99.90
5962;DHT22;3007;50.770;0.250;2022-11-11T03:29:38;14.40;99.90
5962;DHT22;3007;50.770;0.250;2022-11-11T03:32:07;14.40;99.90
5962;DHT22;3007;50.770;0.250;2022-11-11T03:34:34;14.40;99.90
5962;DHT22;3007;50.770;0.250;2022-11-11T03:37:01;14.40;99.90
5962;DHT22;3007;50.770;0.250;2022-11-11T03:39:45;14.40;99.90
5962;DHT22;3007;50.770;0.250;2022-11-11T03:42:12;14.40;99.90
5962;DHT22;3007;50.770;0.250;2022-11-11T03:44:39;14.40;99.90
5962;DHT22;3007;50.770;0.250;2022-11-11T03:47:07;14.50;99.90
5962;DHT22;3007;50.770;0.250;2022-11-11T03:49:34;14.50;99.90
5962;DHT22;3007;50.770;0.250;2022-11-11T03:52:01;14.50;99.90
5962;DHT22;3007;50.770;0.250;2022-11-11T03:54:28;14.50;99.90
5962;DHT22;3007;50.770;0.250;2022-11-11T03:56:54;14.50;99.90
5962;DHT22;3007;50.770;0.250;2022-11-11T03:59:42;14.40;99.90
5962;DHT22;3007;50.770;0.250;2022-11-11T04:02:12;14.40;99.90
5962;DHT22;3007;50.770;0.250;2022-11-11T04:04:57;14.50;99.90
5962;DHT22;3007;50.770;0.250;2022-11-11T04:07:41;14.40;99.90
5962;DHT22;3007;50.770;0.250;2022-11-11T04:10:28;14.40;99.90
5962;DHT22;3007;50.770;0.250;2022-11-11T04:12:57;14.30;99.90
5962;DHT22;3007;50.770;0.250;2022-11-11T04:15:42;14.20;99.90
5962;DHT22;3007;50.770;0.250;2022-11-11T04:18:27;14.10;99.90
5962;DHT22;3007;50.770;0.250;2022-11-11T04:21:12;14.10;99.90
5962;DHT22;3007;50.770;0.250;2022-11-11T04:23:56;14.00;99.90
5962;DHT22;3007;50.770;0.250;2022-11-11T04:26:23;14.00;99.90
5962;DHT22;3007;50.770;0.250;2022-11-11T04:28:49;13.90;99.90
5962;DHT22;3007;50.770;0.250;2022-11-11T04:31:33;13.80;99.90
5962;DHT22;3007;50.770;0.250;2022-11-11T04:34:01;13.80;99.90
5962;DHT22;3007;50.770;0.250;2022-11-11T04:36:27;13.80;99.90
5962;DHT22;3007;50.770;0.250;2022-11-11T04:38:54;13.70;99.90
5962;DHT22;3007;50.770;0.250;2022-11-11T04:41:38;13.70;99.90
5962;DHT22;3007;50.770;0.250;2022-11-11T04:44:05;13.80;99.90
5962;DHT22;3007;50.770;0.250;2022-11-11T04:46:49;13.70;99.90
5962;DHT22;3007;50.770;0.250;2022-11-11T04:49:17;13.70;99.90
5962;DHT22;3007;50.770;0.250;2022-11-11T04:51:44;13.70;99.90
5962;DHT22;3007;50.770;0.250;2022-11-11T04:54:28;13.70;99.90
5962;DHT22;3007;50.770;0.250;2022-11-11T04:57:15;13.70;99.90
5962;DHT22;3007;50.770;0.250;2022-11-11T04:59:41;13.70;99.90
5962;DHT22;3007;50.770;0.250;2022-11-11T05:02:08;13.70;99.90
5962;DHT22;3007;50.770;0.250;2022-11-11T05:04:53;13.80;99.90
5962;DHT22;3007;50.770;0.250;2022-11-11T05:07:20;13.80;99.90
5962;DHT22;3007;50.770;0.250;2022-11-11T05:10:06;13.80;99.90
5962;DHT22;3007;50.770;0.250;2022-11-11T05:12:33;13.80;99.90
5962;DHT22;3007;50.770;0.250;2022-11-11T05:14:59;13.80;99.90
5962;DHT22;3007;50.770;0.250;2022-11-11T05:17:44;13.80;99.90
5962;DHT22;3007;50.770;0.250;2022-11-11T05:20:48;13.80;99.90
5962;DHT22;3007;50.770;0.250;2022-11-11T05:23:32;13.80;99.90
5962;DHT22;3007;50.770;0.250;2022-11-11T05:26:13;13.80;99.90
5962;DHT22;3007;50.770;0.250;2022-11-11T05:28:40;13.80;99.90
5962;DHT22;3007;50.770;0.250;2022-11-11T05:31:07;13.90;99.90
5962;DHT22;3007;50.770;0.250;2022-11-11T05:33:33;13.80;99.90
5962;DHT22;3007;50.770;0.250;2022-11-11T05:36:02;13.90;99.90
5962;DHT22;3007;50.770;0.250;2022-11-11T05:38:29;13.90;99.90
5962;DHT22;3007;50.770;0.250;2022-11-11T05:40:56;13.90;99.90
5962;DHT22;3007;50.770;0.250;2022-11-11T05:43:23;13.90;99.90
5962;DHT22;3007;50.770;0.250;2022-11-11T05:45:49;13.90;99.90
5962;DHT22;3007;50.770;0.250;2022-11-11T05:48:16;13.90;99.90
5962;DHT22;3007;50.770;0.250;2022-11-11T05:50:43;13.90;99.90
5962;DHT22;3007;50.770;0.250;2022-11-11T05:53:11;13.90;99.90
5962;DHT22;3007;50.770;0.250;2022-11-11T05:55:38;13.80;99.90
5962;DHT22;3007;50.770;0.250;2022-11-11T05:58:05;13.80;99.90
5962;DHT22;3007;50.770;0.250;2022-11-11T06:00:32;13.70;99.90
5962;DHT22;3007;50.770;0.250;2022-11-11T06:03:01;13.80;99.90
5962;DHT22;3007;50.770;0.250;2022-11-11T06:05:28;13.70;99.90
5962;DHT22;3007;50.770;0.250;2022-11-11T06:07:55;13.70;99.90
5962;DHT22;3007;50.770;0.250;2022-11-11T06:10:26;13.70;99.90
5962;DHT22;3007;50.770;0.250;2022-11-11T06:12:56;13.70;99.90
5962;DHT22;3007;50.770;0.250;2022-11-11T06:15:33;13.60;99.90
5962;DHT22;3007;50.770;0.250;2022-11-11T06:18:00;13.60;99.90
5962;DHT22;3007;50.770;0.250;2022-11-11T06:20:27;13.60;99.90
5962;DHT22;3007;50.770;0.250;2022-11-11T06:22:54;13.60;99.90
5962;DHT22;3007;50.770;0.250;2022-11-11T06:25:21;13.60;99.90
5962;DHT22;3007;50.770;0.250;2022-11-11T06:28:07;13.60;99.90
5962;DHT22;3007;50.770;0.250;2022-11-11T06:30:34;13.50;99.90
5962;DHT22;3007;50.770;0.250;2022-11-11T06:33:01;13.50;99.90
5962;DHT22;3007;50.770;0.250;2022-11-11T06:35:28;13.50;99.90
5962;DHT22;3007;50.770;0.250;2022-11-11T06:37:55;13.50;99.90
5962;DHT22;3007;50.770;0.250;2022-11-11T06:40:22;13.50;99.90
5962;DHT22;3007;50.770;0.250;2022-11-11T06:42:49;13.50;99.90
5962;DHT22;3007;50.770;0.250;2022-11-11T06:45:17;13.50;99.90
5962;DHT22;3007;50.770;0.250;2022-11-11T06:47:44;13.50;99.90
5962;DHT22;3007;50.770;0.250;2022-11-11T06:50:11;13.50;99.90
5962;DHT22;3007;50.770;0.250;2022-11-11T06:52:38;13.60;99.90
5962;DHT22;3007;50.770;0.250;2022-11-11T06:55:05;13.60;99.90
5962;DHT22;3007;50.770;0.250;2022-11-11T06:57:32;13.60;99.90
5962;DHT22;3007;50.770;0.250;2022-11-11T06:59:59;13.60;99.90
5962;DHT22;3007;50.770;0.250;2022-11-11T07:02:27;13.70;99.90
5962;DHT22;3007;50.770;0.250;2022-11-11T07:04:54;13.70;99.90
5962;DHT22;3007;50.770;0.250;2022-11-11T07:07:21;13.70;99.90
5962;DHT22;3007;50.770;0.250;2022-11-11T07:09:47;13.70;99.90
5962;DHT22;3007;50.770;0.250;2022-11-11T07:12:14;13.60;99.90
5962;DHT22;3007;50.770;0.250;2022-11-11T07:14:41;13.60;99.90
5962;DHT22;3007;50.770;0.250;2022-11-11T07:17:08;13.60;99.90
5962;DHT22;3007;50.770;0.250;2022-11-11T07:19:36;13.70;99.90
5962;DHT22;3007;50.770;0.250;2022-11-11T07:22:03;13.60;99.90
5962;DHT22;3007;50.770;0.250;2022-11-11T07:24:30;13.60;99.90
5962;DHT22;3007;50.770;0.250;2022-11-11T07:26:57;13.60;99.90
5962;DHT22;3007;50.770;0.250;2022-11-11T07:29:26;13.60;99.90
5962;DHT22;3007;50.770;0.250;2022-11-11T07:31:53;13.60;99.90
5962;DHT22;3007;50.770;0.250;2022-11-11T07:34:20;13.60;99.90
5962;DHT22;3007;50.770;0.250;2022-11-11T07:36:49;13.60;99.90
5962;DHT22;3007;50.770;0.250;2022-11-11T07:39:15;13.50;99.90
5962;DHT22;3007;50.770;0.250;2022-11-11T07:41:42;13.50;99.90
5962;DHT22;3007;50.770;0.250;2022-11-11T07:44:09;13.50;99.90
5962;DHT22;3007;50.770;0.250;2022-11-11T07:46:36;13.40;99.90
5962;DHT22;3007;50.770;0.250;2022-11-11T07:49:02;13.50;99.90
5962;DHT22;3007;50.770;0.250;2022-11-11T07:51:29;13.50;99.90
5962;DHT22;3007;50.770;0.250;2022-11-11T07:53:57;13.60;99.90
5962;DHT22;3007;50.770;0.250;2022-11-11T07:56:24;13.60;99.90
5962;DHT22;3007;50.770;0.250;2022-11-11T07:58:51;13.60;99.90
5962;DHT22;3007;50.770;0.250;2022-11-11T08:01:18;13.60;99.90
5962;DHT22;3007;50.770;0.250;2022-11-11T08:03:45;13.70;99.90
5962;DHT22;3007;50.770;0.250;2022-11-11T08:06:16;13.70;99.90
5962;DHT22;3007;50.770;0.250;2022-11-11T08:08:43;13.70;99.90
5962;DHT22;3007;50.770;0.250;2022-11-11T08:11:11;13.70;99.90
5962;DHT22;3007;50.770;0.250;2022-11-11T08:13:38;13.80;99.90
5962;DHT22;3007;50.770;0.250;2022-11-11T08:16:05;13.70;99.90
5962;DHT22;3007;50.770;0.250;2022-11-11T08:18:32;13.70;99.90
5962;DHT22;3007;50.770;0.250;2022-11-11T08:20:59;13.80;99.90
5962;DHT22;3007;50.770;0.250;2022-11-11T08:23:26;13.80;99.90
5962;DHT22;3007;50.770;0.250;2022-11-11T08:25:58;13.80;99.90
5962;DHT22;3007;50.770;0.250;2022-11-11T08:28:27;13.80;99.90
5962;DHT22;3007;50.770;0.250;2022-11-11T08:30:54;13.80;99.90
5962;DHT22;3007;50.770;0.250;2022-11-11T08:33:21;13.90;99.90
5962;DHT22;3007;50.770;0.250;2022-11-11T08:35:48;13.90;99.90
5962;DHT22;3007;50.770;0.250;2022-11-11T08:38:15;13.90;99.90
5962;DHT22;3007;50.770;0.250;2022-11-11T08:40:42;13.90;99.90
5962;DHT22;3007;50.770;0.250;2022-11-11T08:43:09;13.90;99.90
5962;DHT22;3007;50.770;0.250;2022-11-11T08:45:37;13.90;99.90
5962;DHT22;3007;50.770;0.250;2022-11-11T08:48:05;14.00;99.90
5962;DHT22;3007;50.770;0.250;2022-11-11T08:50:35;14.10;99.90
5962;DHT22;3007;50.770;0.250;2022-11-11T08:53:03;14.10;99.90
5962;DHT22;3007;50.770;0.250;2022-11-11T08:55:30;14.20;99.90
5962;DHT22;3007;50.770;0.250;2022-11-11T08:57:57;14.20;99.90
5962;DHT22;3007;50.770;0.250;2022-11-11T09:00:24;14.30;99.90
5962;DHT22;3007;50.770;0.250;2022-11-11T09:02:53;14.30;99.90
5962;DHT22;3007;50.770;0.250;2022-11-11T09:05:20;14.30;99.90
5962;DHT22;3007;50.770;0.250;2022-11-11T09:07:47;14.30;99.90
5962;DHT22;3007;50.770;0.250;2022-11-11T09:10:14;14.40;99.90
5962;DHT22;3007;50.770;0.250;2022-11-11T09:12:41;14.40;99.90
5962;DHT22;3007;50.770;0.250;2022-11-11T09:15:08;14.40;99.90
5962;DHT22;3007;50.770;0.250;2022-11-11T09:17:35;14.40;99.90
5962;DHT22;3007;50.770;0.250;2022-11-11T09:20:04;14.40;99.90
5962;DHT22;3007;50.770;0.250;2022-11-11T09:22:31;14.40;99.90
5962;DHT22;3007;50.770;0.250;2022-11-11T09:24:58;14.50;99.90
5962;DHT22;3007;50.770;0.250;2022-11-11T09:27:25;14.50;99.90
5962;DHT22;3007;50.770;0.250;2022-11-11T09:29:52;14.50;99.90
5962;DHT22;3007;50.770;0.250;2022-11-11T09:32:19;14.60;99.90
5962;DHT22;3007;50.770;0.250;2022-11-11T09:34:45;14.60;99.90
5962;DHT22;3007;50.770;0.250;2022-11-11T09:37:14;14.60;99.90
5962;DHT22;3007;50.770;0.250;2022-11-11T09:39:40;14.60;99.90
5962;DHT22;3007;50.770;0.250;2022-11-11T09:42:12;14.60;99.90
5962;DHT22;3007;50.770;0.250;2022-11-11T09:45:01;14.70;99.90
5962;DHT22;3007;50.770;0.250;2022-11-11T09:47:38;14.80;99.90
5962;DHT22;3007;50.770;0.250;2022-11-11T09:50:10;14.90;99.90
5962;DHT22;3007;50.770;0.250;2022-11-11T09:52:44;15.00;99.90
5962;DHT22;3007;50.770;0.250;2022-11-11T09:55:15;15.10;99.90
5962;DHT22;3007;50.770;0.250;2022-11-11T09:57:46;15.20;99.90
5962;DHT22;3007;50.770;0.250;2022-11-11T10:00:17;15.20;99.90
5962;DHT22;3007;50.770;0.250;2022-11-11T10:02:49;15.30;99.90
5962;DHT22;3007;50.770;0.250;2022-11-11T10:05:20;15.30;99.90
5962;DHT22;3007;50.770;0.250;2022-11-11T10:07:52;15.40;99.90
5962;DHT22;3007;50.770;0.250;2022-11-11T10:10:25;15.30;99.90
5962;DHT22;3007;50.770;0.250;2022-11-11T10:12:55;15.40;99.90
5962;DHT22;3007;50.770;0.250;2022-11-11T10:15:23;15.40;99.90
5962;DHT22;3007;50.770;0.250;2022-11-11T10:18:11;15.40;99.90
5962;DHT22;3007;50.770;0.250;2022-11-11T10:20:40;15.40;99.90
5962;DHT22;3007;50.770;0.250;2022-11-11T10:23:13;15.40;99.90
5962;DHT22;3007;50.770;0.250;2022-11-11T10:25:45;15.40;99.90
5962;DHT22;3007;50.770;0.250;2022-11-11T10:28:18;15.50;99.90
5962;DHT22;3007;50.770;0.250;2022-11-11T10:30:47;15.50;99.90
5962;DHT22;3007;50.770;0.250;2022-11-11T10:33:18;15.50;99.90
5962;DHT22;3007;50.770;0.250;2022-11-11T10:35:49;15.50;99.90
5962;DHT22;3007;50.770;0.250;2022-11-11T10:38:30;15.60;99.90
5962;DHT22;3007;50.770;0.250;2022-11-11T10:41:02;15.60;99.90
5962;DHT22;3007;50.770;0.250;2022-11-11T10:43:30;15.60;99.90
5962;DHT22;3007;50.770;0.250;2022-11-11T10:46:01;15.60;99.90
5962;DHT22;3007;50.770;0.250;2022-11-11T10:48:37;15.70;99.90
5962;DHT22;3007;50.770;0.250;2022-11-11T10:51:05;15.60;99.90
5962;DHT22;3007;50.770;0.250;2022-11-11T10:53:37;15.60;99.90
5962;DHT22;3007;50.770;0.250;2022-11-11T10:56:14;15.50;99.90
5962;DHT22;3007;50.770;0.250;2022-11-11T10:58:47;15.40;99.90
5962;DHT22;3007;50.770;0.250;2022-11-11T11:01:21;15.40;99.90
5962;DHT22;3007;50.770;0.250;2022-11-11T11:03:56;15.30;99.90
5962;DHT22;3007;50.770;0.250;2022-11-11T11:06:26;15.30;99.90
5962;DHT22;3007;50.770;0.250;2022-11-11T11:09:00;15.20;99.90
5962;DHT22;3007;50.770;0.250;2022-11-11T11:11:30;15.20;99.90
5962;DHT22;3007;50.770;0.250;2022-11-11T11:14:00;15.10;99.90
5962;DHT22;3007;50.770;0.250;2022-11-11T11:16:31;15.20;99.90
5962;DHT22;3007;50.770;0.250;2022-11-11T11:19:16;15.20;99.90
5962;DHT22;3007;50.770;0.250;2022-11-11T11:21:48;15.30;99.90
5962;DHT22;3007;50.770;0.250;2022-11-11T11:24:22;15.30;99.90
5962;DHT22;3007;50.770;0.250;2022-11-11T11:26:52;15.30;99.90
5962;DHT22;3007;50.770;0.250;2022-11-11T11:29:30;15.30;99.90
5962;DHT22;3007;50.770;0.250;2022-11-11T11:32:14;15.20;99.90
5962;DHT22;3007;50.770;0.250;2022-11-11T11:34:47;15.10;99.90
5962;DHT22;3007;50.770;0.250;2022-11-11T11:37:15;15.10;99.90
5962;DHT22;3007;50.770;0.250;2022-11-11T11:39:44;15.10;99.90
5962;DHT22;3007;50.770;0.250;2022-11-11T11:42:27;15.10;99.90
5962;DHT22;3007;50.770;0.250;2022-11-11T11:44:54;15.00;99.90
5962;DHT22;3007;50.770;0.250;2022-11-11T11:47:32;15.00;99.90
5962;DHT22;3007;50.770;0.250;2022-11-11T11:50:16;15.00;99.90
5962;DHT22;3007;50.770;0.250;2022-11-11T11:52:55;15.00;99.90
5962;DHT22;3007;50.770;0.250;2022-11-11T11:55:30;14.90;99.90
5962;DHT22;3007;50.770;0.250;2022-11-11T11:58:10;14.90;99.90
5962;DHT22;3007;50.770;0.250;2022-11-11T12:00:45;14.90;99.90
5962;DHT22;3007;50.770;0.250;2022-11-11T12:06:25;14.80;99.90
5962;DHT22;3007;50.770;0.250;2022-11-11T12:09:04;14.70;99.90
5962;DHT22;3007;50.770;0.250;2022-11-11T12:11:41;14.70;99.90
5962;DHT22;3007;50.770;0.250;2022-11-11T12:17:10;14.70;99.90
5962;DHT22;3007;50.770;0.250;2022-11-11T12:19:49;14.80;99.90
5962;DHT22;3007;50.770;0.250;2022-11-11T12:22:27;14.90;99.90
5962;DHT22;3007;50.770;0.250;2022-11-11T12:25:01;15.10;99.90
5962;DHT22;3007;50.770;0.250;2022-11-11T12:27:39;15.20;99.90
5962;DHT22;3007;50.770;0.250;2022-11-11T12:30:11;15.30;99.90
5962;DHT22;3007;50.770;0.250;2022-11-11T12:36:00;15.40;99.90
5962;DHT22;3007;50.770;0.250;2022-11-11T12:38:48;15.40;99.90
5962;DHT22;3007;50.770;0.250;2022-11-11T12:41:24;15.50;99.90
5962;DHT22;3007;50.770;0.250;2022-11-11T12:44:00;15.40;99.90
5962;DHT22;3007;50.770;0.250;2022-11-11T12:46:39;15.40;99.90
5962;DHT22;3007;50.770;0.250;2022-11-11T12:49:35;15.40;99.90
5962;DHT22;3007;50.770;0.250;2022-11-11T12:52:18;15.40;99.90
5962;DHT22;3007;50.770;0.250;2022-11-11T12:54:57;15.40;99.90
5962;DHT22;3007;50.770;0.250;2022-11-11T12:57:33;15.40;99.90
5962;DHT22;3007;50.770;0.250;2022-11-11T13:00:09;15.50;99.90
5962;DHT22;3007;50.770;0.250;2022-11-11T13:05:36;15.60;99.90
5962;DHT22;3007;50.770;0.250;2022-11-11T13:08:40;15.60;99.90
5962;DHT22;3007;50.770;0.250;2022-11-11T13:11:13;15.60;99.90
5962;DHT22;3007;50.770;0.250;2022-11-11T13:13:55;15.60;99.90
5962;DHT22;3007;50.770;0.250;2022-11-11T13:16:25;15.60;99.90
5962;DHT22;3007;50.770;0.250;2022-11-11T13:18:55;15.60;99.90
5962;DHT22;3007;50.770;0.250;2022-11-11T13:21:29;15.60;99.90
5962;DHT22;3007;50.770;0.250;2022-11-11T13:23:57;15.60;99.90
5962;DHT22;3007;50.770;0.250;2022-11-11T13:26:28;15.60;99.90
5962;DHT22;3007;50.770;0.250;2022-11-11T13:29:08;15.60;99.90
5962;DHT22;3007;50.770;0.250;2022-11-11T13:31:43;15.60;99.90
5962;DHT22;3007;50.770;0.250;2022-11-11T13:34:12;15.50;99.90
5962;DHT22;3007;50.770;0.250;2022-11-11T13:36:42;15.50;99.90
5962;DHT22;3007;50.770;0.250;2022-11-11T13:39:25;15.50;99.90
5962;DHT22;3007;50.770;0.250;2022-11-11T13:41:55;15.50;99.90
5962;DHT22;3007;50.770;0.250;2022-11-11T13:44:25;15.40;99.90
5962;DHT22;3007;50.770;0.250;2022-11-11T13:47:00;15.50;99.90
5962;DHT22;3007;50.770;0.250;2022-11-11T13:49:32;15.40;99.90
5962;DHT22;3007;50.770;0.250;2022-11-11T13:52:01;15.40;99.90
5962;DHT22;3007;50.770;0.250;2022-11-11T13:54:33;15.50;99.90
5962;DHT22;3007;50.770;0.250;2022-11-11T13:57:03;15.50;99.90
5962;DHT22;3007;50.770;0.250;2022-11-11T13:59:32;15.40;99.90
5962;DHT22;3007;50.770;0.250;2022-11-11T14:02:28;15.40;99.90
5962;DHT22;3007;50.770;0.250;2022-11-11T14:05:18;15.40;99.90
5962;DHT22;3007;50.770;0.250;2022-11-11T14:07:49;15.40;99.90
5962;DHT22;3007;50.770;0.250;2022-11-11T14:10:52;15.40;99.90
5962;DHT22;3007;50.770;0.250;2022-11-11T14:13:38;15.40;99.90
5962;DHT22;3007;50.770;0.250;2022-11-11T14:16:09;15.30;99.90
5962;DHT22;3007;50.770;0.250;2022-11-11T14:18:41;15.30;99.90
5962;DHT22;3007;50.770;0.250;2022-11-11T14:21:09;15.30;99.90
5962;DHT22;3007;50.770;0.250;2022-11-11T14:23:38;15.30;99.90
5962;DHT22;3007;50.770;0.250;2022-11-11T14:26:26;15.30;99.90
5962;DHT22;3007;50.770;0.250;2022-11-11T14:28:56;15.20;99.90
5962;DHT22;3007;50.770;0.250;2022-11-11T14:31:46;15.20;99.90
5962;DHT22;3007;50.770;0.250;2022-11-11T14:34:24;15.20;99.90
5962;DHT22;3007;50.770;0.250;2022-11-11T14:36:58;15.20;99.90
5962;DHT22;3007;50.770;0.250;2022-11-11T14:39:41;15.20;99.90
5962;DHT22;3007;50.770;0.250;2022-11-11T14:42:43;15.10;99.90
5962;DHT22;3007;50.770;0.250;2022-11-11T14:48:54;15.10;99.90
5962;DHT22;3007;50.770;0.250;2022-11-11T14:51:47;15.10;99.90
5962;DHT22;3007;50.770;0.250;2022-11-11T14:54:24;15.00;99.90
5962;DHT22;3007;50.770;0.250;2022-11-11T14:56:57;15.00;99.90
5962;DHT22;3007;50.770;0.250;2022-11-11T14:59:27;14.90;99.90
5962;DHT22;3007;50.770;0.250;2022-11-11T15:01:54;14.90;99.90
5962;DHT22;3007;50.770;0.250;2022-11-11T15:04:23;14.80;99.90
5962;DHT22;3007;50.770;0.250;2022-11-11T15:06:55;14.70;99.90
5962;DHT22;3007;50.770;0.250;2022-11-11T15:09:55;14.70;99.90
5962;DHT22;3007;50.770;0.250;2022-11-11T15:12:32;14.70;99.90
5962;DHT22;3007;50.770;0.250;2022-11-11T15:15:09;14.60;99.90
5962;DHT22;3007;50.770;0.250;2022-11-11T15:17:44;14.50;99.90
5962;DHT22;3007;50.770;0.250;2022-11-11T15:20:55;14.50;99.90
5962;DHT22;3007;50.770;0.250;2022-11-11T15:23:30;14.50;99.90
5962;DHT22;3007;50.770;0.250;2022-11-11T15:26:06;14.40;99.90
5962;DHT22;3007;50.770;0.250;2022-11-11T15:28:45;14.40;99.90
5962;DHT22;3007;50.770;0.250;2022-11-11T15:31:21;14.40;99.90
5962;DHT22;3007;50.770;0.250;2022-11-11T15:33:55;14.40;99.90
5962;DHT22;3007;50.770;0.250;2022-11-11T15:36:35;14.30;99.90
5962;DHT22;3007;50.770;0.250;2022-11-11T15:39:12;14.30;99.90
5962;DHT22;3007;50.770;0.250;2022-11-11T15:41:41;14.20;99.90
5962;DHT22;3007;50.770;0.250;2022-11-11T15:44:16;14.20;99.90
5962;DHT22;3007;50.770;0.250;2022-11-11T15:46:44;14.20;99.90
5962;DHT22;3007;50.770;0.250;2022-11-11T15:49:13;14.20;99.90
5962;DHT22;3007;50.770;0.250;2022-11-11T15:51:40;14.00;99.90
5962;DHT22;3007;50.770;0.250;2022-11-11T15:54:18;14.10;99.90
5962;DHT22;3007;50.770;0.250;2022-11-11T15:56:46;14.10;99.90
5962;DHT22;3007;50.770;0.250;2022-11-11T15:59:15;14.10;99.90
5962;DHT22;3007;50.770;0.250;2022-11-11T16:01:42;14.00;99.90
5962;DHT22;3007;50.770;0.250;2022-11-11T16:04:13;14.10;99.90
5962;DHT22;3007;50.770;0.250;2022-11-11T16:06:42;14.00;99.90
5962;DHT22;3007;50.770;0.250;2022-11-11T16:09:11;14.00;99.90
5962;DHT22;3007;50.770;0.250;2022-11-11T16:11:41;14.00;99.90
5962;DHT22;3007;50.770;0.250;2022-11-11T16:14:20;13.90;99.90
5962;DHT22;3007;50.770;0.250;2022-11-11T16:16:50;13.80;99.90
5962;DHT22;3007;50.770;0.250;2022-11-11T16:19:26;13.80;99.90
5962;DHT22;3007;50.770;0.250;2022-11-11T16:21:58;13.60;99.90
5962;DHT22;3007;50.770;0.250;2022-11-11T16:24:29;13.50;99.90
5962;DHT22;3007;50.770;0.250;2022-11-11T16:27:00;13.50;99.90
5962;DHT22;3007;50.770;0.250;2022-11-11T16:29:33;13.40;99.90
5962;DHT22;3007;50.770;0.250;2022-11-11T16:32:01;13.40;99.90
5962;DHT22;3007;50.770;0.250;2022-11-11T16:34:44;13.40;99.90
5962;DHT22;3007;50.770;0.250;2022-11-11T16:37:13;13.30;99.90
5962;DHT22;3007;50.770;0.250;2022-11-11T16:39:42;13.20;99.90
5962;DHT22;3007;50.770;0.250;2022-11-11T16:42:19;13.20;99.90
5962;DHT22;3007;50.770;0.250;2022-11-11T16:44:50;13.30;99.90
5962;DHT22;3007;50.770;0.250;2022-11-11T16:47:49;13.30;99.90
5962;DHT22;3007;50.770;0.250;2022-11-11T16:50:18;13.30;99.90